Time;durP1;ratioP1;P1;durP2;ratioP2;P2;SDS_P1;SDS_P2;PMS_P1;PMS_P2;Temp;Humidity;BMP_temperature;BMP_pressure;BME280_temperature;BME280_humidity;BME280_pressure;Samples;Min_cycle;Max_cycle;Signal;HPM_P1;HPM_P2
2021/01/31 00:01:23;;;;;;;18.63;3.75;;;5.50;99.90;;;;;;5014686;28;20040;-84
2021/01/31 00:03:48;;;;;;;18.00;3.28;;;5.50;99.90;;;;;;4998084;28;20033;-83
2021/01/31 00:06:14;;;;;;;15.70;3.25;;;5.50;99.90;;;;;;4998552;28;20033;-84
2021/01/31 00:08:40;;;;;;;21.60;4.03;;;5.50;99.90;;;;;;4998130;28;20373;-84
2021/01/31 00:11:05;;;;;;;20.30;4.15;;;5.40;99.90;;;;;;4998532;28;20048;-83
2021/01/31 00:13:31;;;;;;;20.27;3.78;;;5.40;99.90;;;;;;5014341;28;20038;-82
2021/01/31 00:15:57;;;;;;;19.52;3.13;;;5.40;99.90;;;;;;5031478;28;20040;-83
2021/01/31 00:18:29;;;;;;;15.20;3.83;;;5.30;99.90;;;;;;5030308;28;20489;-83
2021/01/31 00:20:57;;;;;;;19.00;3.10;;;5.20;99.90;;;;;;5014259;28;20051;-83
2021/01/31 00:23:23;;;;;;;16.52;3.55;;;5.20;99.90;;;;;;4998704;28;20057;-83
2021/01/31 00:25:50;;;;;;;25.50;4.75;;;5.10;99.90;;;;;;5013490;28;20056;-83
2021/01/31 00:28:17;;;;;;;21.95;3.55;;;5.10;99.90;;;;;;5029068;28;20025;-83
2021/01/31 00:30:45;;;;;;;21.25;4.57;;;5.10;99.90;;;;;;5013996;28;20143;-83
2021/01/31 00:33:26;;;;;;;19.67;4.82;;;5.00;99.90;;;;;;5030169;28;20060;-83
2021/01/31 00:35:53;;;;;;;23.20;4.00;;;4.90;99.90;;;;;;5030158;28;20075;-83
2021/01/31 00:38:21;;;;;;;15.82;4.03;;;4.90;99.90;;;;;;5029910;28;20033;-84
2021/01/31 00:40:47;;;;;;;15.27;3.78;;;4.80;99.90;;;;;;5031380;28;20036;-83
2021/01/31 00:43:14;;;;;;;15.40;3.63;;;4.80;99.90;;;;;;5014129;28;20033;-83
2021/01/31 00:45:40;;;;;;;23.00;3.90;;;4.80;99.90;;;;;;5030075;28;20030;-83
2021/01/31 00:48:06;;;;;;;12.55;3.20;;;4.70;99.90;;;;;;5030270;28;20021;-83
2021/01/31 00:50:37;;;;;;;20.05;3.88;;;4.70;99.90;;;;;;5029888;28;20081;-83
2021/01/31 00:53:07;;;;;;;25.48;4.03;;;4.70;99.90;;;;;;5030192;28;20358;-83
2021/01/31 00:55:32;;;;;;;17.48;4.22;;;4.70;99.90;;;;;;5030349;28;20021;-82
2021/01/31 00:57:58;;;;;;;20.70;3.70;;;4.60;99.90;;;;;;5013761;28;20045;-83
2021/01/31 01:00:29;;;;;;;23.02;4.13;;;4.60;99.90;;;;;;4996605;28;20551;-83
2021/01/31 01:02:55;;;;;;;14.70;3.88;;;4.50;99.90;;;;;;5029204;28;20025;-83
2021/01/31 01:05:23;;;;;;;22.67;5.00;;;4.50;99.90;;;;;;5012938;28;20041;-82
2021/01/31 01:07:49;;;;;;;19.52;3.38;;;4.50;99.90;;;;;;5030847;28;20545;-83
2021/01/31 01:10:20;;;;;;;17.73;3.15;;;4.40;99.90;;;;;;5013040;28;20476;-83
2021/01/31 01:12:46;;;;;;;16.15;4.00;;;4.40;99.90;;;;;;5030050;28;20021;-82
2021/01/31 01:15:14;;;;;;;10.98;2.75;;;4.40;99.90;;;;;;5014392;28;20580;-84
2021/01/31 01:17:40;;;;;;;16.70;3.40;;;4.40;99.90;;;;;;5031814;28;20083;-84
2021/01/31 01:20:06;;;;;;;15.93;2.80;;;4.40;99.90;;;;;;5030689;28;20025;-83
2021/01/31 01:22:33;;;;;;;16.00;4.32;;;4.30;99.90;;;;;;5013114;28;20056;-83
2021/01/31 01:25:02;;;;;;;23.20;3.95;;;4.40;99.90;;;;;;4997072;28;20057;-83
2021/01/31 01:27:28;;;;;;;11.82;2.95;;;4.40;99.90;;;;;;5029867;28;20038;-83
2021/01/31 01:29:54;;;;;;;14.13;3.03;;;4.30;99.90;;;;;;5029631;28;20033;-83
2021/01/31 01:32:20;;;;;;;15.38;2.70;;;4.30;99.90;;;;;;5013398;28;20021;-83
2021/01/31 01:34:46;;;;;;;26.17;4.40;;;4.20;99.90;;;;;;5012996;28;20120;-83
2021/01/31 01:37:13;;;;;;;16.90;3.08;;;4.20;99.90;;;;;;5012356;28;20082;-84
2021/01/31 01:39:39;;;;;;;19.52;2.90;;;4.20;99.90;;;;;;5012762;28;20030;-83
2021/01/31 01:42:09;;;;;;;9.77;2.78;;;4.10;99.90;;;;;;5029797;28;20063;-84
2021/01/31 01:44:36;;;;;;;11.20;2.10;;;4.20;99.90;;;;;;5029913;28;20025;-84
2021/01/31 01:47:06;;;;;;;13.30;3.05;;;4.20;99.90;;;;;;5031696;28;20380;-83
2021/01/31 01:49:36;;;;;;;18.25;2.58;;;4.10;99.90;;;;;;5031588;28;20022;-84
2021/01/31 01:52:12;;;;;;;12.57;2.72;;;4.20;99.90;;;;;;5029067;28;20384;-84
2021/01/31 01:54:45;;;;;;;10.27;2.25;;;4.20;99.90;;;;;;5029395;28;20116;-83
2021/01/31 01:57:17;;;;;;;10.65;2.03;;;4.20;99.90;;;;;;5029088;28;20026;-84
2021/01/31 01:59:43;;;;;;;21.67;2.78;;;4.10;99.90;;;;;;5029774;28;20040;-85
2021/01/31 02:02:08;;;;;;;9.38;2.33;;;4.10;99.90;;;;;;5029443;28;20029;-84
2021/01/31 02:04:35;;;;;;;8.70;1.85;;;4.10;99.90;;;;;;5029788;28;20101;-84
2021/01/31 02:07:01;;;;;;;8.38;2.22;;;4.00;99.90;;;;;;4995980;28;20543;-83
2021/01/31 02:09:27;;;;;;;11.02;2.25;;;4.00;99.90;;;;;;5028057;28;20057;-83
2021/01/31 02:12:00;;;;;;;33.85;4.75;;;4.00;99.90;;;;;;5028599;28;20100;-84
2021/01/31 02:14:28;;;;;;;12.07;3.25;;;3.90;99.90;;;;;;5029894;28;20053;-84
2021/01/31 02:17:06;;;;;;;11.98;2.13;;;3.90;99.90;;;;;;5029614;28;20049;-84
2021/01/31 02:19:44;;;;;;;8.57;1.98;;;3.90;99.90;;;;;;5028238;28;20030;-84
2021/01/31 02:22:34;;;;;;;10.43;2.03;;;3.90;99.90;;;;;;5028079;28;20492;-84
2021/01/31 02:25:25;;;;;;;8.45;1.70;;;3.90;99.90;;;;;;5028038;28;20029;-84
2021/01/31 02:28:28;;;;;;;7.50;2.22;;;3.90;99.90;;;;;;5028664;28;20025;-83
2021/01/31 02:31:26;;;;;;;13.00;2.22;;;3.90;99.90;;;;;;5028529;28;20061;-84
2021/01/31 02:34:04;;;;;;;11.25;1.73;;;3.90;99.90;;;;;;5028427;28;20028;-84
2021/01/31 02:36:53;;;;;;;9.30;2.33;;;3.90;99.90;;;;;;5028028;28;20037;-83
2021/01/31 02:39:24;;;;;;;;;;;4.00;99.90;;;;;;5031119;28;20448;-84
2021/01/31 02:42:25;;;;;;;12.27;2.05;;;4.00;99.90;;;;;;5030422;28;19905;-84
2021/01/31 02:45:04;;;;;;;10.52;1.67;;;4.00;99.90;;;;;;5028289;28;20033;-84
2021/01/31 02:47:31;;;;;;;;;;;4.10;99.90;;;;;;5028773;28;20033;-84
2021/01/31 02:50:17;;;;;;;17.55;2.60;;;4.10;99.90;;;;;;5028422;28;19959;-84
2021/01/31 02:52:49;;;;;;;8.73;1.80;;;4.10;99.90;;;;;;5031809;28;20052;-83
2021/01/31 02:55:18;;;;;;;7.40;1.90;;;4.10;99.90;;;;;;5031594;28;20032;-83
2021/01/31 02:57:47;;;;;;;;;;;4.10;99.90;;;;;;5031956;28;20034;-83
2021/01/31 03:00:24;;;;;;;12.60;2.80;;;4.10;99.90;;;;;;5031912;28;19905;-84
2021/01/31 03:02:58;;;;;;;18.92;2.28;;;4.20;99.90;;;;;;5031326;28;20033;-83
2021/01/31 03:05:29;;;;;;;10.82;1.65;;;4.20;99.90;;;;;;5031583;28;20033;-84
2021/01/31 03:08:17;;;;;;;13.63;2.80;;;4.20;99.90;;;;;;5031417;28;20394;-84
2021/01/31 03:10:46;;;;;;;9.48;1.80;;;4.30;99.90;;;;;;5033067;28;20071;-84
2021/01/31 03:13:27;;;;;;;13.00;2.03;;;4.30;99.90;;;;;;5031490;28;20036;-83
2021/01/31 03:16:04;;;;;;;19.35;3.47;;;4.30;99.90;;;;;;5031044;28;20033;-83
2021/01/31 03:18:47;;;;;;;16.38;2.05;;;4.40;99.90;;;;;;5031074;28;20028;-84
2021/01/31 03:21:20;;;;;;;16.08;3.10;;;4.40;99.90;;;;;;5032788;28;20096;-84
2021/01/31 03:24:07;;;;;;;9.40;2.17;;;4.40;99.90;;;;;;5031370;28;20041;-84
2021/01/31 03:26:38;;;;;;;14.82;2.13;;;4.50;99.90;;;;;;5031352;28;20110;-83
2021/01/31 03:29:04;;;;;;;13.40;1.90;;;4.50;99.90;;;;;;5031194;28;20049;-83
2021/01/31 03:31:33;;;;;;;12.35;1.95;;;4.50;99.90;;;;;;5030944;28;20263;-84
2021/01/31 03:34:08;;;;;;;13.52;2.55;;;4.60;99.90;;;;;;5031090;28;20021;-84
2021/01/31 03:36:37;;;;;;;11.68;2.22;;;4.60;99.90;;;;;;5031142;28;20072;-83
2021/01/31 03:39:04;;;;;;;10.00;3.15;;;4.60;99.90;;;;;;5031089;28;20033;-84
2021/01/31 03:41:31;;;;;;;10.00;1.65;;;4.70;99.90;;;;;;5031008;28;20436;-84
2021/01/31 03:43:56;;;;;;;10.13;2.08;;;4.70;99.90;;;;;;5031404;28;20037;-83
2021/01/31 03:46:54;;;;;;;14.32;2.42;;;4.80;99.90;;;;;;5014012;28;20439;-85
2021/01/31 03:49:38;;;;;;;10.07;2.33;;;4.80;99.90;;;;;;5030594;28;20068;-84
2021/01/31 03:52:04;;;;;;;7.50;2.03;;;4.80;99.90;;;;;;5030887;28;20027;-85
2021/01/31 03:54:30;;;;;;;13.40;2.25;;;4.90;99.90;;;;;;5030811;28;20026;-84
2021/01/31 03:57:04;;;;;;;11.05;2.38;;;5.00;99.90;;;;;;5031094;28;20029;-84
2021/01/31 03:59:47;;;;;;;6.32;1.88;;;5.00;99.90;;;;;;5031754;28;20384;-84
2021/01/31 04:02:14;;;;;;;10.35;2.42;;;4.90;99.90;;;;;;5032143;28;20036;-83
2021/01/31 04:04:45;;;;;;;10.90;2.70;;;5.00;99.90;;;;;;5015038;28;20052;-84
2021/01/31 04:07:17;;;;;;;11.05;2.00;;;5.00;99.90;;;;;;5031025;28;20017;-83
2021/01/31 04:09:44;;;;;;;13.00;1.85;;;5.00;99.90;;;;;;5033384;28;20040;-83
2021/01/31 04:12:13;;;;;;;7.45;1.75;;;5.10;99.90;;;;;;4999481;28;20029;-84
2021/01/31 04:14:41;;;;;;;6.73;1.77;;;5.10;99.90;;;;;;5031727;28;20024;-84
2021/01/31 04:17:07;;;;;;;10.43;2.65;;;5.10;99.90;;;;;;5031871;28;20025;-83
2021/01/31 04:19:33;;;;;;;14.15;2.05;;;5.10;99.90;;;;;;5013751;28;20035;-84
2021/01/31 04:21:58;;;;;;;14.32;1.75;;;5.00;99.90;;;;;;5029656;28;20128;-84
2021/01/31 04:24:24;;;;;;;5.75;1.63;;;5.00;99.90;;;;;;5030134;28;20407;-84
2021/01/31 04:26:50;;;;;;;12.82;2.63;;;5.00;99.90;;;;;;5013329;28;20029;-84
2021/01/31 04:29:15;;;;;;;8.35;1.75;;;5.00;99.90;;;;;;4997028;28;20173;-83
2021/01/31 04:31:41;;;;;;;12.30;2.83;;;5.00;99.90;;;;;;5013439;28;20084;-84
2021/01/31 04:34:07;;;;;;;5.30;1.38;;;5.00;99.90;;;;;;5013345;28;20121;-83
2021/01/31 04:36:33;;;;;;;8.70;1.45;;;5.10;99.90;;;;;;5029735;28;20457;-83
2021/01/31 04:38:58;;;;;;;10.30;1.67;;;5.10;99.90;;;;;;5012807;28;20041;-83
2021/01/31 04:41:39;;;;;;;6.40;1.63;;;5.10;99.80;;;;;;5012575;28;20040;-83
2021/01/31 04:44:06;;;;;;;8.27;1.40;;;5.10;99.50;;;;;;5029685;28;20060;-84
2021/01/31 04:47:03;;;;;;;9.60;2.17;;;5.10;99.20;;;;;;5012932;28;20037;-84
2021/01/31 04:49:51;;;;;;;11.52;1.95;;;5.10;99.10;;;;;;5029179;28;20527;-84
2021/01/31 04:52:23;;;;;;;6.10;2.27;;;5.20;99.10;;;;;;5024340;28;20135;-84
2021/01/31 04:54:57;;;;;;;6.05;1.52;;;5.20;99.10;;;;;;5031166;28;20053;-84
2021/01/31 04:57:40;;;;;;;5.70;1.38;;;5.20;99.00;;;;;;5029738;28;20427;-84
2021/01/31 05:00:12;;;;;;;9.68;1.73;;;5.20;99.00;;;;;;5029621;28;20029;-84
2021/01/31 05:02:45;;;;;;;11.88;1.77;;;5.20;98.90;;;;;;5029278;28;20095;-84
2021/01/31 05:05:19;;;;;;;7.53;1.88;;;5.20;98.90;;;;;;5029109;28;20025;-83
2021/01/31 05:07:52;;;;;;;8.60;1.90;;;5.20;98.80;;;;;;5029336;28;20026;-85
2021/01/31 05:10:18;;;;;;;6.00;1.50;;;5.20;98.70;;;;;;5030937;28;20080;-84
2021/01/31 05:13:26;;;;;;;9.57;1.63;;;5.20;98.80;;;;;;4997318;28;20041;-84
2021/01/31 05:16:00;;;;;;;13.40;2.55;;;5.20;98.70;;;;;;5029180;28;20049;-84
2021/01/31 05:18:27;;;;;;;13.02;1.60;;;5.20;98.80;;;;;;5029978;28;20025;-84
2021/01/31 05:21:00;;;;;;;20.13;3.97;;;5.20;98.80;;;;;;5012970;28;20033;-83
2021/01/31 05:23:29;;;;;;;17.70;2.45;;;5.20;98.80;;;;;;5028722;28;20069;-84
2021/01/31 05:25:55;;;;;;;9.77;2.87;;;5.20;98.80;;;;;;5030331;28;20033;-84
2021/01/31 05:28:23;;;;;;;11.00;2.80;;;5.20;98.90;;;;;;5012040;28;20334;-84
2021/01/31 05:30:49;;;;;;;9.18;1.70;;;5.30;98.90;;;;;;5030582;28;20030;-84
2021/01/31 05:33:18;;;;;;;12.02;1.52;;;5.30;98.80;;;;;;5030058;28;20025;-84
2021/01/31 05:36:11;;;;;;;11.40;1.70;;;5.20;98.80;;;;;;5030987;28;20037;-84
2021/01/31 05:38:40;;;;;;;10.82;1.73;;;5.20;98.80;;;;;;5030086;28;20507;-84
2021/01/31 05:41:32;;;;;;;10.73;2.17;;;5.20;98.90;;;;;;5029670;28;20048;-83
2021/01/31 05:44:16;;;;;;;13.02;2.20;;;5.20;98.90;;;;;;5029819;28;20627;-84
2021/01/31 05:46:45;;;;;;;8.75;1.75;;;5.20;99.00;;;;;;5030476;28;20033;-84
2021/01/31 05:49:42;;;;;;;10.43;1.50;;;5.30;99.10;;;;;;5029191;28;20047;-84
2021/01/31 05:52:20;;;;;;;9.10;1.70;;;5.20;99.00;;;;;;5029944;28;20056;-83
2021/01/31 05:54:48;;;;;;;15.18;2.88;;;5.30;99.00;;;;;;5028497;28;20030;-83
2021/01/31 05:57:31;;;;;;;16.42;2.95;;;5.30;99.00;;;;;;5031348;28;20029;-83
2021/01/31 05:59:59;;;;;;;16.63;2.55;;;5.30;99.00;;;;;;5030909;28;20029;-83
2021/01/31 06:02:31;;;;;;;14.05;1.92;;;5.30;99.00;;;;;;5029211;28;20021;-84
2021/01/31 06:05:20;;;;;;;14.00;2.03;;;5.30;99.00;;;;;;5032908;28;20084;-83
2021/01/31 06:07:56;;;;;;;7.50;1.83;;;5.30;99.00;;;;;;5029894;28;20120;-84
2021/01/31 06:10:23;;;;;;;14.63;2.35;;;5.40;99.00;;;;;;5029212;28;20026;-83
2021/01/31 06:12:50;;;;;;;13.23;2.30;;;5.40;99.00;;;;;;4996906;28;20554;-84
2021/01/31 06:15:29;;;;;;;9.77;1.55;;;5.40;99.10;;;;;;5029820;28;20041;-84
2021/01/31 06:18:03;;;;;;;13.70;1.85;;;5.40;99.10;;;;;;5031531;28;20100;-84
2021/01/31 06:20:36;;;;;;;6.78;1.73;;;5.40;99.00;;;;;;5028946;28;20646;-84
2021/01/31 06:23:04;;;;;;;10.15;2.35;;;5.30;98.90;;;;;;5029518;28;20053;-83
2021/01/31 06:25:29;;;;;;;8.68;1.67;;;5.30;98.90;;;;;;5030061;28;20373;-84
2021/01/31 06:28:11;;;;;;;12.50;1.73;;;5.30;99.00;;;;;;5033308;28;20021;-83
2021/01/31 06:30:44;;;;;;;11.82;1.83;;;5.30;99.00;;;;;;5032853;28;20109;-83
2021/01/31 06:33:10;;;;;;;9.40;1.67;;;5.40;99.00;;;;;;5034242;28;20028;-83
2021/01/31 06:35:35;;;;;;;13.63;2.92;;;5.30;98.90;;;;;;5016323;28;20025;-84
2021/01/31 06:38:01;;;;;;;12.23;2.60;;;5.40;99.00;;;;;;5018286;28;20029;-83
2021/01/31 06:40:51;;;;;;;11.90;1.95;;;5.30;99.00;;;;;;5035909;28;20061;-84
2021/01/31 06:43:36;;;;;;;11.35;1.92;;;5.30;99.00;;;;;;5033978;28;20028;-84
2021/01/31 06:46:21;;;;;;;14.18;2.78;;;5.30;99.00;;;;;;5031913;28;20036;-84
2021/01/31 06:49:26;;;;;;;8.35;1.70;;;5.30;98.90;;;;;;5032234;28;20022;-83
2021/01/31 06:52:13;;;;;;;6.45;1.88;;;5.30;99.00;;;;;;5011269;28;20137;-84
2021/01/31 06:55:02;;;;;;;8.85;2.22;;;5.30;99.00;;;;;;5031575;28;20040;-83
2021/01/31 06:57:56;;;;;;;10.40;1.50;;;5.30;98.90;;;;;;5032920;28;20099;-84
2021/01/31 07:00:30;;;;;;;14.90;2.55;;;5.30;98.90;;;;;;5032486;28;20029;-83
2021/01/31 07:03:25;;;;;;;9.35;3.05;;;5.30;98.90;;;;;;5033320;28;20031;-83
2021/01/31 07:06:17;;;;;;;6.57;1.73;;;5.30;99.00;;;;;;4995925;28;20037;-85
2021/01/31 07:08:55;;;;;;;9.40;2.63;;;5.30;98.90;;;;;;5032575;28;20112;-83
2021/01/31 07:11:29;;;;;;;8.35;2.05;;;5.30;98.80;;;;;;5033692;28;20396;-84
2021/01/31 07:14:01;;;;;;;9.20;1.73;;;5.30;98.80;;;;;;5032312;28;20025;-84
2021/01/31 07:16:54;;;;;;;11.27;2.03;;;5.30;98.70;;;;;;5031698;28;20049;-81
2021/01/31 07:19:38;;;;;;;6.40;1.92;;;5.30;98.60;;;;;;5031549;28;20028;-84
2021/01/31 07:22:18;;;;;;;9.10;1.98;;;5.30;98.60;;;;;;5031228;28;20128;-84
2021/01/31 07:24:54;;;;;;;8.32;2.30;;;5.30;98.60;;;;;;5032825;28;20117;-83
2021/01/31 07:27:38;;;;;;;10.35;1.95;;;5.30;98.60;;;;;;5032629;28;20030;-84
2021/01/31 07:30:25;;;;;;;8.07;2.53;;;5.30;98.60;;;;;;5031425;28;20032;-84
2021/01/31 07:32:56;;;;;;;11.02;1.92;;;5.30;98.50;;;;;;5031495;28;20026;-83
2021/01/31 07:35:27;;;;;;;10.65;2.58;;;5.30;98.60;;;;;;5030382;28;20028;-83
2021/01/31 07:38:02;;;;;;;9.70;1.83;;;5.20;98.70;;;;;;5030232;28;20034;-83
2021/01/31 07:40:28;;;;;;;7.82;2.10;;;5.10;98.70;;;;;;5032121;28;20030;-83
2021/01/31 07:42:55;;;;;;;11.25;1.85;;;5.10;98.80;;;;;;5014635;28;20104;-83
2021/01/31 07:45:24;;;;;;;12.18;2.33;;;5.10;98.70;;;;;;4998034;28;20040;-84
2021/01/31 07:48:10;;;;;;;11.40;1.92;;;5.00;98.80;;;;;;5032849;28;20022;-84
2021/01/31 07:50:39;;;;;;;9.82;2.05;;;5.00;98.90;;;;;;5031002;28;20032;-83
2021/01/31 07:53:06;;;;;;;5.95;3.08;;;5.00;99.00;;;;;;5031611;28;20053;-83
2021/01/31 07:55:35;;;;;;;8.75;2.03;;;4.90;99.10;;;;;;4999613;28;20034;-83
2021/01/31 07:58:27;;;;;;;8.13;2.67;;;4.80;99.20;;;;;;5031555;28;20033;-84
2021/01/31 08:00:54;;;;;;;10.68;2.63;;;4.70;99.30;;;;;;5033171;28;20044;-84
2021/01/31 08:03:36;;;;;;;7.97;2.10;;;4.60;99.50;;;;;;5013883;28;20030;-83
2021/01/31 08:06:30;;;;;;;10.18;2.78;;;4.60;99.70;;;;;;5032231;28;20099;-83
2021/01/31 08:08:55;;;;;;;7.03;2.30;;;4.50;99.80;;;;;;5011687;28;20033;-83
2021/01/31 08:11:21;;;;;;;13.45;3.05;;;4.40;99.90;;;;;;5018178;28;20388;-84
2021/01/31 08:13:52;;;;;;;5.93;2.67;;;4.40;99.90;;;;;;5032698;28;20029;-83
2021/01/31 08:16:40;;;;;;;19.83;3.58;;;4.30;99.90;;;;;;5034853;28;20025;-83
2021/01/31 08:19:23;;;;;;;5.57;2.00;;;4.20;99.90;;;;;;5034357;28;20131;-83
2021/01/31 08:22:00;;;;;;;7.45;2.70;;;4.20;99.90;;;;;;5032438;28;20033;-84
2021/01/31 08:24:59;;;;;;;5.65;1.98;;;4.10;99.90;;;;;;5035234;28;20040;-84
2021/01/31 08:27:37;;;;;;;6.55;1.90;;;4.10;99.90;;;;;;5034382;28;20029;-83
2021/01/31 08:30:22;;;;;;;6.65;1.98;;;4.10;99.90;;;;;;5033253;28;20064;-84
2021/01/31 08:33:03;;;;;;;7.95;2.20;;;4.10;99.90;;;;;;5033687;28;20021;-83
2021/01/31 08:35:41;;;;;;;8.30;1.92;;;4.10;99.90;;;;;;5033853;28;20072;-83
2021/01/31 08:38:31;;;;;;;5.85;1.73;;;4.10;99.90;;;;;;5032839;28;20354;-83
2021/01/31 08:41:03;;;;;;;6.65;2.00;;;4.10;99.90;;;;;;5029729;28;20029;-84
2021/01/31 08:43:42;;;;;;;5.20;1.77;;;4.10;99.90;;;;;;5030256;28;20449;-83
2021/01/31 08:46:17;;;;;;;3.97;1.60;;;4.10;99.90;;;;;;5030792;28;20551;-83
2021/01/31 08:49:15;;;;;;;4.38;1.38;;;4.10;99.90;;;;;;5030594;28;20099;-83
2021/01/31 08:51:54;;;;;;;4.20;1.40;;;4.10;99.90;;;;;;5029632;28;20028;-84
2021/01/31 08:54:22;;;;;;;5.53;2.30;;;4.10;99.90;;;;;;5030477;28;20025;-83
2021/01/31 08:56:59;;;;;;;3.90;1.48;;;4.10;99.90;;;;;;5030280;28;20087;-83
2021/01/31 08:59:30;;;;;;;3.42;1.50;;;4.10;99.90;;;;;;5029722;28;20499;-84
2021/01/31 09:01:58;;;;;;;7.82;2.92;;;4.10;99.90;;;;;;5029116;28;20095;-83
2021/01/31 09:04:26;;;;;;;7.67;2.30;;;4.10;99.90;;;;;;5028546;28;20029;-83
2021/01/31 09:06:53;;;;;;;8.88;2.67;;;4.10;99.90;;;;;;5031608;28;20287;-82
2021/01/31 09:09:20;;;;;;;7.82;2.03;;;4.10;99.90;;;;;;5029585;28;20097;-83
2021/01/31 09:11:55;;;;;;;6.38;2.35;;;4.20;99.90;;;;;;5030498;28;20053;-82
2021/01/31 09:14:27;;;;;;;9.23;2.75;;;4.20;99.90;;;;;;5031370;28;20017;-83
2021/01/31 09:17:06;;;;;;;5.05;2.40;;;4.20;99.90;;;;;;5029040;28;20311;-82
2021/01/31 09:19:32;;;;;;;5.45;2.55;;;4.10;99.90;;;;;;5013458;28;20057;-82
2021/01/31 09:22:07;;;;;;;10.13;2.72;;;4.10;99.90;;;;;;5028793;28;20078;-82
2021/01/31 09:24:36;;;;;;;10.05;2.60;;;4.10;99.90;;;;;;5027832;28;20033;-82
2021/01/31 09:27:04;;;;;;;9.15;3.03;;;4.10;99.90;;;;;;5030492;28;20030;-81
2021/01/31 09:29:31;;;;;;;14.95;3.25;;;4.10;99.90;;;;;;5031846;28;20021;-82
2021/01/31 09:32:21;;;;;;;6.13;2.70;;;4.10;99.90;;;;;;5015369;28;20056;-82
2021/01/31 09:34:53;;;;;;;12.48;2.70;;;4.10;99.90;;;;;;5032551;28;20048;-82
2021/01/31 09:37:25;;;;;;;12.48;2.80;;;4.10;99.90;;;;;;5028908;28;20052;-82
2021/01/31 09:39:54;;;;;;;13.30;2.60;;;4.10;99.90;;;;;;5030372;28;20036;-81
2021/01/31 09:42:20;;;;;;;10.10;3.00;;;4.10;99.90;;;;;;5029928;28;20082;-82
2021/01/31 09:44:51;;;;;;;8.02;2.63;;;4.10;99.90;;;;;;5028140;28;20079;-82
2021/01/31 09:47:19;;;;;;;16.58;2.53;;;4.00;99.90;;;;;;5030721;28;20036;-82
2021/01/31 09:49:54;;;;;;;10.70;2.47;;;4.00;99.90;;;;;;5030410;28;20025;-82
2021/01/31 09:52:20;;;;;;;4.93;1.95;;;4.00;99.90;;;;;;5030953;28;20018;-82
2021/01/31 09:54:45;;;;;;;8.02;2.15;;;4.00;99.90;;;;;;5030551;28;20030;-82
2021/01/31 09:57:20;;;;;;;8.32;3.42;;;4.00;99.90;;;;;;5030928;28;20030;-82
2021/01/31 09:59:46;;;;;;;7.78;3.20;;;4.00;99.90;;;;;;5029255;28;20025;-82
2021/01/31 10:02:23;;;;;;;6.60;2.30;;;4.10;99.90;;;;;;5032756;28;20030;-81
2021/01/31 10:04:57;;;;;;;8.32;2.10;;;4.10;99.90;;;;;;5033904;28;20179;-81
2021/01/31 10:07:29;;;;;;;3.50;1.50;;;4.10;99.90;;;;;;5030339;28;20045;-81
2021/01/31 10:09:54;;;;;;;4.22;1.70;;;4.10;99.90;;;;;;5031559;28;20025;-82
2021/01/31 10:12:34;;;;;;;4.05;1.40;;;4.10;99.90;;;;;;5015491;28;20075;-81
2021/01/31 10:15:02;;;;;;;4.07;1.40;;;4.20;99.90;;;;;;5015148;28;20065;-82
2021/01/31 10:17:30;;;;;;;3.33;1.48;;;4.20;99.90;;;;;;5033905;28;20034;-82
2021/01/31 10:20:35;;;;;;;3.20;1.20;;;4.20;99.90;;;;;;5031534;28;20037;-82
2021/01/31 10:23:18;;;;;;;5.80;2.03;;;4.20;99.90;;;;;;5032621;28;20124;-82
2021/01/31 10:26:00;;;;;;;5.45;1.92;;;4.20;99.90;;;;;;5031316;28;20026;-83
2021/01/31 10:28:34;;;;;;;5.47;1.50;;;4.20;99.90;;;;;;5028626;28;20121;-81
2021/01/31 10:31:00;;;;;;;4.25;1.38;;;4.30;99.90;;;;;;5029219;28;20150;-81
2021/01/31 10:33:46;;;;;;;4.00;1.42;;;4.30;99.90;;;;;;5029016;28;20045;-82
2021/01/31 10:36:26;;;;;;;3.95;1.38;;;4.30;99.90;;;;;;5013694;28;20040;-83
2021/01/31 10:38:53;;;;;;;5.95;1.83;;;4.20;99.90;;;;;;5029710;28;20022;-83
2021/01/31 10:41:19;;;;;;;4.00;1.33;;;4.30;99.90;;;;;;4997114;28;20036;-83
2021/01/31 10:43:58;;;;;;;6.65;1.58;;;4.30;99.90;;;;;;5012653;28;20025;-83
2021/01/31 10:46:24;;;;;;;4.35;1.15;;;4.20;99.90;;;;;;5029877;28;20036;-81
2021/01/31 10:48:49;;;;;;;3.80;1.65;;;4.30;99.90;;;;;;5029281;28;20026;-83
2021/01/31 10:51:15;;;;;;;5.18;1.60;;;4.30;99.90;;;;;;5012733;28;20048;-82
2021/01/31 10:53:41;;;;;;;3.55;0.80;;;4.30;99.90;;;;;;5013580;28;20492;-82
2021/01/31 10:56:07;;;;;;;6.03;1.60;;;4.30;99.90;;;;;;5013091;28;20056;-83
2021/01/31 10:58:33;;;;;;;5.20;1.45;;;4.30;99.90;;;;;;4996696;28;20025;-82
2021/01/31 11:00:59;;;;;;;4.32;1.15;;;4.40;99.90;;;;;;5029317;28;20404;-83
2021/01/31 11:03:25;;;;;;;4.10;1.17;;;4.40;99.90;;;;;;5012365;28;20037;-83
2021/01/31 11:05:50;;;;;;;3.10;1.45;;;4.40;99.90;;;;;;5012756;28;20083;-82
2021/01/31 11:08:16;;;;;;;3.30;1.30;;;4.40;99.90;;;;;;5012505;28;20029;-84
2021/01/31 11:10:42;;;;;;;3.40;1.55;;;4.40;99.90;;;;;;5029480;28;20052;-82
2021/01/31 11:13:08;;;;;;;4.03;1.20;;;4.50;99.90;;;;;;5014520;28;20030;-83
2021/01/31 11:15:33;;;;;;;3.67;1.95;;;4.50;99.90;;;;;;5015677;28;20034;-83
2021/01/31 11:17:59;;;;;;;4.70;1.75;;;4.50;99.90;;;;;;5015747;28;20480;-82
2021/01/31 11:20:25;;;;;;;4.22;1.85;;;4.50;99.90;;;;;;5015711;28;20409;-83
2021/01/31 11:22:50;;;;;;;4.20;1.70;;;4.50;99.90;;;;;;4999487;28;20577;-83
2021/01/31 11:25:16;;;;;;;4.78;1.45;;;4.60;99.90;;;;;;5032842;28;20220;-82
2021/01/31 11:27:42;;;;;;;4.13;1.40;;;4.60;99.90;;;;;;5000579;28;20038;-83
2021/01/31 11:30:08;;;;;;;6.15;1.55;;;4.60;99.90;;;;;;5016918;28;20025;-82
2021/01/31 11:32:34;;;;;;;2.28;1.50;;;4.70;99.90;;;;;;5033339;28;20026;-83
2021/01/31 11:35:00;;;;;;;4.18;1.30;;;4.70;99.90;;;;;;5031248;28;20102;-82
2021/01/31 11:37:26;;;;;;;4.43;2.50;;;4.70;99.90;;;;;;5032710;28;20040;-81
2021/01/31 11:39:52;;;;;;;5.70;1.55;;;4.70;99.90;;;;;;4999169;28;20052;-82
2021/01/31 11:42:17;;;;;;;6.60;1.65;;;4.70;99.90;;;;;;5016406;28;20117;-84
2021/01/31 11:44:44;;;;;;;4.78;2.00;;;4.60;99.90;;;;;;4999771;28;20084;-82
2021/01/31 11:47:09;;;;;;;4.75;1.70;;;4.70;99.90;;;;;;5015557;28;20037;-82
2021/01/31 11:49:35;;;;;;;5.40;2.05;;;4.70;99.90;;;;;;4999155;28;20311;-82
2021/01/31 11:52:01;;;;;;;5.63;2.03;;;4.70;99.90;;;;;;5016286;28;20088;-82
2021/01/31 11:54:27;;;;;;;8.27;2.58;;;4.70;99.90;;;;;;4999444;28;20052;-83
2021/01/31 11:56:54;;;;;;;6.15;2.22;;;4.70;99.90;;;;;;5015289;28;20099;-82
2021/01/31 11:59:20;;;;;;;6.68;2.13;;;4.80;99.90;;;;;;5031947;28;20032;-83
2021/01/31 12:01:45;;;;;;;5.35;1.55;;;4.80;99.90;;;;;;5031510;28;20341;-84
2021/01/31 12:04:11;;;;;;;4.50;1.45;;;4.80;99.90;;;;;;4997298;28;20114;-83
2021/01/31 12:06:37;;;;;;;8.02;1.98;;;4.80;99.90;;;;;;4998320;28;20036;-82
2021/01/31 12:09:03;;;;;;;8.30;2.20;;;4.80;99.90;;;;;;5032521;28;20017;-83
2021/01/31 12:11:29;;;;;;;7.70;2.15;;;4.80;99.90;;;;;;5030953;28;20099;-83
2021/01/31 12:13:56;;;;;;;8.98;2.17;;;4.80;99.90;;;;;;5014878;28;20033;-83
2021/01/31 12:16:22;;;;;;;5.15;2.10;;;4.80;99.90;;;;;;5030488;28;20021;-83
2021/01/31 12:18:48;;;;;;;5.65;2.45;;;4.80;99.90;;;;;;5014023;28;20033;-81
2021/01/31 12:21:14;;;;;;;4.55;1.50;;;4.80;99.90;;;;;;5014588;28;20041;-81
2021/01/31 12:23:40;;;;;;;6.00;2.15;;;4.80;99.90;;;;;;5013650;28;20389;-84
2021/01/31 12:26:05;;;;;;;8.40;2.22;;;4.80;99.90;;;;;;5013400;28;20044;-83
2021/01/31 12:28:31;;;;;;;7.05;3.20;;;4.90;99.90;;;;;;4997600;28;20071;-83
2021/01/31 12:30:57;;;;;;;3.47;1.83;;;4.90;99.90;;;;;;5030480;28;20499;-83
2021/01/31 12:33:22;;;;;;;3.40;1.73;;;4.90;99.90;;;;;;5014135;28;20164;-82
2021/01/31 12:35:48;;;;;;;6.95;2.33;;;4.90;99.90;;;;;;5013882;28;20075;-82
2021/01/31 12:38:14;;;;;;;3.50;1.38;;;5.00;99.90;;;;;;5029659;28;20506;-84
2021/01/31 12:40:40;;;;;;;7.88;1.83;;;4.90;99.90;;;;;;5030394;28;20061;-85
2021/01/31 12:43:05;;;;;;;2.72;1.77;;;5.00;99.90;;;;;;5013933;28;20030;-82
2021/01/31 12:45:31;;;;;;;5.63;2.58;;;4.90;99.90;;;;;;5015051;28;20062;-82
2021/01/31 12:47:57;;;;;;;4.00;1.92;;;4.90;99.90;;;;;;5031847;28;20025;-83
2021/01/31 12:50:27;;;;;;;4.70;1.92;;;4.90;99.90;;;;;;5030164;28;20032;-82
2021/01/31 12:52:52;;;;;;;;;;;4.90;99.90;;;;;;5030595;28;20025;-83
2021/01/31 12:55:18;;;;;;;5.88;1.83;;;5.00;99.90;;;;;;5031609;28;20010;-83
2021/01/31 12:57:44;;;;;;;6.28;2.03;;;4.90;99.90;;;;;;5013603;28;20033;-82
2021/01/31 13:00:14;;;;;;;7.25;2.15;;;4.90;99.90;;;;;;5028546;28;20052;-83
2021/01/31 13:02:40;;;;;;;11.23;3.70;;;4.90;99.90;;;;;;5028821;28;20038;-82
2021/01/31 13:05:07;;;;;;;4.50;1.85;;;4.80;99.90;;;;;;5029166;28;20053;-83
2021/01/31 13:07:33;;;;;;;4.05;1.70;;;4.90;99.90;;;;;;5028182;28;20071;-83
2021/01/31 13:09:59;;;;;;;4.35;1.70;;;4.80;99.90;;;;;;5012658;28;20364;-82
2021/01/31 13:12:25;;;;;;;4.32;1.67;;;4.90;99.90;;;;;;5027955;28;20109;-82
2021/01/31 13:14:50;;;;;;;3.33;1.30;;;4.90;99.90;;;;;;5028717;28;20025;-84
2021/01/31 13:17:16;;;;;;;6.65;2.65;;;4.90;99.90;;;;;;5029675;28;20033;-83
2021/01/31 13:19:42;;;;;;;4.43;1.70;;;4.90;99.90;;;;;;4995404;28;20040;-83